sensor_id;sensor_type;location;lat;lon;timestamp;temperature;humidity
10441;DHT22;5268;49.346;9.522;2023-08-21T03:08:09;22.30;99.90
10441;DHT22;5268;49.346;9.522;2023-08-21T03:13:11;22.20;99.90
10441;DHT22;5268;49.346;9.522;2023-08-21T03:18:13;22.20;99.90
10441;DHT22;5268;49.346;9.522;2023-08-21T03:23:17;22.10;99.90
10441;DHT22;5268;49.346;9.522;2023-08-21T03:28:19;22.10;99.90
10441;DHT22;5268;49.346;9.522;2023-08-21T03:33:21;22.10;99.90
10441;DHT22;5268;49.346;9.522;2023-08-21T03:38:25;22.10;99.90
10441;DHT22;5268;49.346;9.522;2023-08-21T03:43:27;22.00;99.90
10441;DHT22;5268;49.346;9.522;2023-08-21T03:48:29;22.00;99.90
10441;DHT22;5268;49.346;9.522;2023-08-21T03:53:32;22.00;99.90
10441;DHT22;5268;49.346;9.522;2023-08-21T03:58:34;22.00;99.90
10441;DHT22;5268;49.346;9.522;2023-08-21T04:03:36;21.90;99.90
10441;DHT22;5268;49.346;9.522;2023-08-21T04:08:39;21.90;99.90
10441;DHT22;5268;49.346;9.522;2023-08-21T04:13:41;21.90;99.90
10441;DHT22;5268;49.346;9.522;2023-08-21T04:18:43;21.80;99.90
10441;DHT22;5268;49.346;9.522;2023-08-21T04:23:47;21.80;99.90
10441;DHT22;5268;49.346;9.522;2023-08-21T04:28:49;21.70;99.90
10441;DHT22;5268;49.346;9.522;2023-08-21T04:33:51;21.80;99.90
10441;DHT22;5268;49.346;9.522;2023-08-21T04:38:54;21.70;99.90
10441;DHT22;5268;49.346;9.522;2023-08-21T04:43:56;21.70;99.90
10441;DHT22;5268;49.346;9.522;2023-08-21T04:49:00;21.70;99.90
10441;DHT22;5268;49.346;9.522;2023-08-21T04:54:04;21.70;99.90
10441;DHT22;5268;49.346;9.522;2023-08-21T04:59:06;21.70;99.90
10441;DHT22;5268;49.346;9.522;2023-08-21T05:04:08;21.70;99.90
10441;DHT22;5268;49.346;9.522;2023-08-21T05:09:11;21.70;99.90
10441;DHT22;5268;49.346;9.522;2023-08-21T05:14:14;21.70;99.90
10441;DHT22;5268;49.346;9.522;2023-08-21T05:19:16;21.70;99.90
10441;DHT22;5268;49.346;9.522;2023-08-21T05:24:19;21.80;99.90
10441;DHT22;5268;49.346;9.522;2023-08-21T05:29:22;21.80;99.90
10441;DHT22;5268;49.346;9.522;2023-08-21T05:34:24;21.80;99.90
10441;DHT22;5268;49.346;9.522;2023-08-21T05:39:27;21.80;99.90
10441;DHT22;5268;49.346;9.522;2023-08-21T05:44:30;21.80;99.90
10441;DHT22;5268;49.346;9.522;2023-08-21T05:49:32;21.80;99.90
10441;DHT22;5268;49.346;9.522;2023-08-21T05:54:36;21.80;99.90
10441;DHT22;5268;49.346;9.522;2023-08-21T05:59:43;21.80;99.90
10441;DHT22;5268;49.346;9.522;2023-08-21T06:04:45;21.90;99.90
10441;DHT22;5268;49.346;9.522;2023-08-21T06:09:50;22.00;99.90
10441;DHT22;5268;49.346;9.522;2023-08-21T06:14:52;22.20;99.90
10441;DHT22;5268;49.346;9.522;2023-08-21T06:19:54;22.40;99.90
10441;DHT22;5268;49.346;9.522;2023-08-21T06:24:59;22.60;99.90
10441;DHT22;5268;49.346;9.522;2023-08-21T06:30:01;22.70;99.90
10441;DHT22;5268;49.346;9.522;2023-08-21T06:35:03;22.90;99.90
10441;DHT22;5268;49.346;9.522;2023-08-21T06:40:08;23.10;99.90
10441;DHT22;5268;49.346;9.522;2023-08-21T06:45:10;23.20;99.90
10441;DHT22;5268;49.346;9.522;2023-08-21T06:50:12;23.50;99.90
10441;DHT22;5268;49.346;9.522;2023-08-21T06:55:16;23.80;99.90
10441;DHT22;5268;49.346;9.522;2023-08-21T07:00:18;24.00;99.90
10441;DHT22;5268;49.346;9.522;2023-08-21T07:05:20;24.20;99.90
10441;DHT22;5268;49.346;9.522;2023-08-21T07:10:24;24.40;99.90
10441;DHT22;5268;49.346;9.522;2023-08-21T07:15:26;24.70;99.90
10441;DHT22;5268;49.346;9.522;2023-08-21T07:20:28;25.00;99.90
10441;DHT22;5268;49.346;9.522;2023-08-21T07:25:31;25.50;99.90
10441;DHT22;5268;49.346;9.522;2023-08-21T07:30:36;25.90;99.90
10441;DHT22;5268;49.346;9.522;2023-08-21T07:35:39;26.40;99.90
10441;DHT22;5268;49.346;9.522;2023-08-21T07:40:42;26.80;99.90
10441;DHT22;5268;49.346;9.522;2023-08-21T07:45:44;27.20;99.90
10441;DHT22;5268;49.346;9.522;2023-08-21T07:50:51;27.50;99.90
10441;DHT22;5268;49.346;9.522;2023-08-21T07:55:55;27.80;99.90
10441;DHT22;5268;49.346;9.522;2023-08-21T08:00:57;28.10;99.90
10441;DHT22;5268;49.346;9.522;2023-08-21T08:05:59;28.50;99.90
10441;DHT22;5268;49.346;9.522;2023-08-21T08:11:03;28.80;99.90
10441;DHT22;5268;49.346;9.522;2023-08-21T08:16:05;29.10;99.90
10441;DHT22;5268;49.346;9.522;2023-08-21T08:21:07;29.40;99.90
10441;DHT22;5268;49.346;9.522;2023-08-21T08:26:11;29.70;99.90
10441;DHT22;5268;49.346;9.522;2023-08-21T08:31:15;29.80;99.90
10441;DHT22;5268;49.346;9.522;2023-08-21T08:36:17;30.00;99.90
10441;DHT22;5268;49.346;9.522;2023-08-21T08:41:25;30.40;99.90
10441;DHT22;5268;49.346;9.522;2023-08-21T08:46:30;30.60;99.90
10441;DHT22;5268;49.346;9.522;2023-08-21T08:51:35;30.70;99.90
10441;DHT22;5268;49.346;9.522;2023-08-21T08:56:40;30.80;99.90
10441;DHT22;5268;49.346;9.522;2023-08-21T09:01:43;31.10;99.90
10441;DHT22;5268;49.346;9.522;2023-08-21T09:06:45;31.40;99.90
10441;DHT22;5268;49.346;9.522;2023-08-21T09:11:48;31.60;99.90
10441;DHT22;5268;49.346;9.522;2023-08-21T09:17:00;32.00;99.90
10441;DHT22;5268;49.346;9.522;2023-08-21T09:22:08;32.30;99.90
10441;DHT22;5268;49.346;9.522;2023-08-21T09:27:16;32.50;99.90
10441;DHT22;5268;49.346;9.522;2023-08-21T09:32:18;32.80;99.90
10441;DHT22;5268;49.346;9.522;2023-08-21T09:37:20;33.00;99.90
10441;DHT22;5268;49.346;9.522;2023-08-21T09:42:23;33.30;99.90
10441;DHT22;5268;49.346;9.522;2023-08-21T09:47:26;33.60;99.90
10441;DHT22;5268;49.346;9.522;2023-08-21T09:52:28;33.70;99.90
10441;DHT22;5268;49.346;9.522;2023-08-21T09:57:32;33.70;99.90
10441;DHT22;5268;49.346;9.522;2023-08-21T10:02:35;33.90;99.90
10441;DHT22;5268;49.346;9.522;2023-08-21T10:07:37;33.90;99.90
10441;DHT22;5268;49.346;9.522;2023-08-21T10:12:41;33.70;99.90
10441;DHT22;5268;49.346;9.522;2023-08-21T10:17:43;33.70;99.90
10441;DHT22;5268;49.346;9.522;2023-08-21T10:22:47;33.60;99.90
10441;DHT22;5268;49.346;9.522;2023-08-21T10:27:53;33.60;99.90
10441;DHT22;5268;49.346;9.522;2023-08-21T10:32:55;33.70;99.90
10441;DHT22;5268;49.346;9.522;2023-08-21T10:38:11;33.60;99.90
10441;DHT22;5268;49.346;9.522;2023-08-21T10:43:38;33.50;99.90
10441;DHT22;5268;49.346;9.522;2023-08-21T10:48:41;33.80;99.90
10441;DHT22;5268;49.346;9.522;2023-08-21T10:53:43;34.00;99.90
10441;DHT22;5268;49.346;9.522;2023-08-21T10:58:46;34.10;99.90
10441;DHT22;5268;49.346;9.522;2023-08-21T11:03:51;34.40;99.90
10441;DHT22;5268;49.346;9.522;2023-08-21T11:08:53;34.70;99.90
10441;DHT22;5268;49.346;9.522;2023-08-21T11:13:57;35.10;99.90
10441;DHT22;5268;49.346;9.522;2023-08-21T11:19:03;35.20;99.90
10441;DHT22;5268;49.346;9.522;2023-08-21T11:24:05;35.50;99.90
10441;DHT22;5268;49.346;9.522;2023-08-21T11:29:08;35.50;98.60
10441;DHT22;5268;49.346;9.522;2023-08-21T11:34:10;35.60;99.90
10441;DHT22;5268;49.346;9.522;2023-08-21T11:39:12;35.60;99.90
10441;DHT22;5268;49.346;9.522;2023-08-21T11:44:16;35.80;99.90
10441;DHT22;5268;49.346;9.522;2023-08-21T11:49:18;35.40;99.30
10441;DHT22;5268;49.346;9.522;2023-08-21T11:54:20;35.50;99.90
10441;DHT22;5268;49.346;9.522;2023-08-21T11:59:23;35.60;99.90
10441;DHT22;5268;49.346;9.522;2023-08-21T12:04:25;35.60;99.90
10441;DHT22;5268;49.346;9.522;2023-08-21T12:09:27;35.50;99.90
10441;DHT22;5268;49.346;9.522;2023-08-21T12:14:31;35.30;99.90
10441;DHT22;5268;49.346;9.522;2023-08-21T12:19:33;35.10;99.90
10441;DHT22;5268;49.346;9.522;2023-08-21T12:24:35;35.00;99.90
10441;DHT22;5268;49.346;9.522;2023-08-21T12:29:38;35.00;97.30
10441;DHT22;5268;49.346;9.522;2023-08-21T12:34:40;34.90;99.90
10441;DHT22;5268;49.346;9.522;2023-08-21T12:39:42;34.80;99.90
10441;DHT22;5268;49.346;9.522;2023-08-21T12:44:46;34.60;99.90
10441;DHT22;5268;49.346;9.522;2023-08-21T12:49:48;34.60;99.90
10441;DHT22;5268;49.346;9.522;2023-08-21T12:54:50;34.50;99.90
10441;DHT22;5268;49.346;9.522;2023-08-21T12:59:53;34.40;99.90
10441;DHT22;5268;49.346;9.522;2023-08-21T13:04:55;34.50;99.90
10441;DHT22;5268;49.346;9.522;2023-08-21T13:09:57;34.20;96.20
10441;DHT22;5268;49.346;9.522;2023-08-21T13:15:01;34.40;99.90
10441;DHT22;5268;49.346;9.522;2023-08-21T13:20:04;34.60;99.90
10441;DHT22;5268;49.346;9.522;2023-08-21T13:25:07;34.60;97.40
10441;DHT22;5268;49.346;9.522;2023-08-21T13:30:12;34.60;99.80
10441;DHT22;5268;49.346;9.522;2023-08-21T13:35:14;34.60;99.60
10441;DHT22;5268;49.346;9.522;2023-08-21T13:40:17;34.60;99.90
10441;DHT22;5268;49.346;9.522;2023-08-21T13:45:23;34.80;99.70
10441;DHT22;5268;49.346;9.522;2023-08-21T13:50:25;34.50;94.40
10441;DHT22;5268;49.346;9.522;2023-08-21T13:55:27;34.30;95.40
10441;DHT22;5268;49.346;9.522;2023-08-21T14:00:30;34.20;97.20
10441;DHT22;5268;49.346;9.522;2023-08-21T14:05:32;34.20;98.20
10441;DHT22;5268;49.346;9.522;2023-08-21T14:10:35;34.30;98.70
10441;DHT22;5268;49.346;9.522;2023-08-21T14:15:38;34.30;98.70
10441;DHT22;5268;49.346;9.522;2023-08-21T14:20:40;34.50;98.90
10441;DHT22;5268;49.346;9.522;2023-08-21T14:25:43;34.50;98.40
10441;DHT22;5268;49.346;9.522;2023-08-21T14:30:47;34.60;98.60
10441;DHT22;5268;49.346;9.522;2023-08-21T14:35:50;34.40;97.20
10441;DHT22;5268;49.346;9.522;2023-08-21T14:40:53;34.40;97.70
10441;DHT22;5268;49.346;9.522;2023-08-21T14:45:56;34.50;97.80
10441;DHT22;5268;49.346;9.522;2023-08-21T14:50:58;34.50;97.70
10441;DHT22;5268;49.346;9.522;2023-08-21T14:56:00;34.50;97.60
10441;DHT22;5268;49.346;9.522;2023-08-21T15:01:04;34.50;97.60
10441;DHT22;5268;49.346;9.522;2023-08-21T15:06:06;34.50;97.10
10441;DHT22;5268;49.346;9.522;2023-08-21T15:11:08;34.50;97.60
10441;DHT22;5268;49.346;9.522;2023-08-21T15:16:12;34.50;97.40
10441;DHT22;5268;49.346;9.522;2023-08-21T15:21:14;34.20;93.10
10441;DHT22;5268;49.346;9.522;2023-08-21T15:26:16;34.20;96.80
10441;DHT22;5268;49.346;9.522;2023-08-21T15:31:20;34.10;96.80
10441;DHT22;5268;49.346;9.522;2023-08-21T15:36:22;34.10;96.10
10441;DHT22;5268;49.346;9.522;2023-08-21T15:41:24;34.20;96.90
10441;DHT22;5268;49.346;9.522;2023-08-21T15:46:27;34.20;96.20
10441;DHT22;5268;49.346;9.522;2023-08-21T15:51:29;34.20;96.80
10441;DHT22;5268;49.346;9.522;2023-08-21T15:56:31;34.10;96.60
10441;DHT22;5268;49.346;9.522;2023-08-21T16:01:34;34.10;96.80
10441;DHT22;5268;49.346;9.522;2023-08-21T16:06:36;34.10;94.90
10441;DHT22;5268;49.346;9.522;2023-08-21T16:11:38;33.90;95.60
10441;DHT22;5268;49.346;9.522;2023-08-21T16:16:42;33.90;96.10
10441;DHT22;5268;49.346;9.522;2023-08-21T16:21:44;33.80;95.70
10441;DHT22;5268;49.346;9.522;2023-08-21T16:26:48;33.80;95.50
10441;DHT22;5268;49.346;9.522;2023-08-21T16:31:51;33.80;96.00
10441;DHT22;5268;49.346;9.522;2023-08-21T16:36:54;33.80;96.20
10441;DHT22;5268;49.346;9.522;2023-08-21T16:41:56;33.70;96.20
10441;DHT22;5268;49.346;9.522;2023-08-21T16:46:59;33.70;96.60
10441;DHT22;5268;49.346;9.522;2023-08-21T16:52:01;33.70;95.80
10441;DHT22;5268;49.346;9.522;2023-08-21T16:57:03;33.50;96.20
10441;DHT22;5268;49.346;9.522;2023-08-21T17:02:07;33.50;96.50
10441;DHT22;5268;49.346;9.522;2023-08-21T17:07:09;33.40;96.50
10441;DHT22;5268;49.346;9.522;2023-08-21T17:12:11;33.30;96.50
10441;DHT22;5268;49.346;9.522;2023-08-21T17:17:14;33.30;96.80
10441;DHT22;5268;49.346;9.522;2023-08-21T17:22:16;33.20;96.20
10441;DHT22;5268;49.346;9.522;2023-08-21T17:27:18;33.10;96.20
10441;DHT22;5268;49.346;9.522;2023-08-21T17:32:22;33.00;96.40
10441;DHT22;5268;49.346;9.522;2023-08-21T17:37:24;32.90;96.40
10441;DHT22;5268;49.346;9.522;2023-08-21T17:42:26;32.80;96.60
10441;DHT22;5268;49.346;9.522;2023-08-21T17:47:29;32.70;96.60
10441;DHT22;5268;49.346;9.522;2023-08-21T17:52:31;32.60;96.40
10441;DHT22;5268;49.346;9.522;2023-08-21T17:57:33;32.40;96.30
10441;DHT22;5268;49.346;9.522;2023-08-21T18:02:38;32.20;95.90
10441;DHT22;5268;49.346;9.522;2023-08-21T18:07:41;32.00;95.80
10441;DHT22;5268;49.346;9.522;2023-08-21T18:12:43;31.80;96.60
10441;DHT22;5268;49.346;9.522;2023-08-21T18:17:46;31.60;96.80
10441;DHT22;5268;49.346;9.522;2023-08-21T18:22:49;31.40;96.90
10441;DHT22;5268;49.346;9.522;2023-08-21T18:27:51;31.20;96.90
10441;DHT22;5268;49.346;9.522;2023-08-21T18:32:54;31.00;97.10
10441;DHT22;5268;49.346;9.522;2023-08-21T18:37:56;30.80;97.30
10441;DHT22;5268;49.346;9.522;2023-08-21T18:42:58;30.70;97.30
10441;DHT22;5268;49.346;9.522;2023-08-21T18:48:02;30.50;97.00
10441;DHT22;5268;49.346;9.522;2023-08-21T18:53:06;30.40;97.40
10441;DHT22;5268;49.346;9.522;2023-08-21T18:58:09;30.20;97.50
10441;DHT22;5268;49.346;9.522;2023-08-21T19:03:12;30.10;98.00
10441;DHT22;5268;49.346;9.522;2023-08-21T19:08:15;29.90;98.00
10441;DHT22;5268;49.346;9.522;2023-08-21T19:13:17;29.70;97.80
10441;DHT22;5268;49.346;9.522;2023-08-21T19:18:20;29.50;98.40
10441;DHT22;5268;49.346;9.522;2023-08-21T19:23:22;29.30;97.80
10441;DHT22;5268;49.346;9.522;2023-08-21T19:28:24;29.10;98.00
10441;DHT22;5268;49.346;9.522;2023-08-21T19:33:28;29.00;98.00
10441;DHT22;5268;49.346;9.522;2023-08-21T19:38:30;28.90;98.20
10441;DHT22;5268;49.346;9.522;2023-08-21T19:43:32;28.80;98.10
10441;DHT22;5268;49.346;9.522;2023-08-21T19:48:35;28.60;98.50
10441;DHT22;5268;49.346;9.522;2023-08-21T19:53:37;28.50;98.30
10441;DHT22;5268;49.346;9.522;2023-08-21T19:58:39;28.40;98.20
10441;DHT22;5268;49.346;9.522;2023-08-21T20:03:42;28.20;98.40
10441;DHT22;5268;49.346;9.522;2023-08-21T20:08:45;28.10;98.70
10441;DHT22;5268;49.346;9.522;2023-08-21T20:13:47;28.00;98.60
10441;DHT22;5268;49.346;9.522;2023-08-21T20:18:50;27.90;98.70
10441;DHT22;5268;49.346;9.522;2023-08-21T20:23:52;27.80;98.90
10441;DHT22;5268;49.346;9.522;2023-08-21T20:28:54;27.70;98.90
10441;DHT22;5268;49.346;9.522;2023-08-21T20:33:58;27.60;99.00
10441;DHT22;5268;49.346;9.522;2023-08-21T20:39:00;27.50;98.90
10441;DHT22;5268;49.346;9.522;2023-08-21T20:44:02;27.30;98.70
10441;DHT22;5268;49.346;9.522;2023-08-21T20:49:05;27.20;99.00
10441;DHT22;5268;49.346;9.522;2023-08-21T20:54:07;27.10;99.40
10441;DHT22;5268;49.346;9.522;2023-08-21T20:59:09;27.00;99.20
10441;DHT22;5268;49.346;9.522;2023-08-21T21:04:13;26.90;99.60
10441;DHT22;5268;49.346;9.522;2023-08-21T21:09:14;26.80;99.20
10441;DHT22;5268;49.346;9.522;2023-08-21T21:14:17;26.70;99.60
10441;DHT22;5268;49.346;9.522;2023-08-21T21:19:20;26.50;99.80
10441;DHT22;5268;49.346;9.522;2023-08-21T21:24:22;26.50;99.70
10441;DHT22;5268;49.346;9.522;2023-08-21T21:29:24;26.40;99.20
10441;DHT22;5268;49.346;9.522;2023-08-21T21:34:27;26.30;99.70
10441;DHT22;5268;49.346;9.522;2023-08-21T21:39:29;26.20;99.90
10441;DHT22;5268;49.346;9.522;2023-08-21T21:44:31;26.10;99.80
10441;DHT22;5268;49.346;9.522;2023-08-21T21:49:35;26.00;99.60
10441;DHT22;5268;49.346;9.522;2023-08-21T21:54:37;25.90;99.80
